createdAt,value
2023-11-25T00:00:51.812Z,98774.09
2023-11-25T00:03:19.560Z,98789.37
2023-11-25T00:05:46.963Z,98796.28
2023-11-25T00:08:14.327Z,98802.00
2023-11-25T00:10:42.044Z,98807.78
2023-11-25T00:13:10.185Z,98814.09
2023-11-25T00:15:38.026Z,98809.78
2023-11-25T00:18:07.747Z,98805.19
2023-11-25T00:20:38.157Z,98809.25
2023-11-25T00:23:06.731Z,98811.16
2023-11-25T00:25:34.114Z,98832.88
2023-11-25T00:28:01.870Z,98834.13
2023-11-25T00:30:30.532Z,98836.34
2023-11-25T00:32:57.963Z,98836.69
2023-11-25T00:35:26.725Z,98839.72
2023-11-25T00:37:54.494Z,98838.59
2023-11-25T00:40:21.913Z,98838.91
2023-11-25T00:42:49.309Z,98830.72
2023-11-25T00:45:17.070Z,98823.09
2023-11-25T00:47:44.547Z,98819.47
2023-11-25T00:50:12.553Z,98820.03
2023-11-25T00:52:40.467Z,98816.75
2023-11-25T00:55:08.893Z,98807.09
2023-11-25T00:57:37.104Z,98819.66
2023-11-25T01:00:16.917Z,98808.28
2023-11-25T01:02:50.614Z,98811.91
2023-11-25T01:05:18.371Z,98809.16
2023-11-25T01:07:46.083Z,98795.81
2023-11-25T01:10:13.658Z,98790.94
2023-11-25T01:12:42.437Z,98797.19
2023-11-25T01:15:12.714Z,98786.06
2023-11-25T01:17:41.201Z,98791.66
2023-11-25T01:20:10.979Z,98783.25
2023-11-25T01:22:40.202Z,98782.25
2023-11-25T01:25:08.370Z,98777.47
2023-11-25T01:27:37.160Z,98789.28
2023-11-25T01:30:07.580Z,98803.97
2023-11-25T01:32:35.800Z,98790.22
2023-11-25T01:35:04.151Z,98777.84
2023-11-25T01:37:34.758Z,98771.06
2023-11-25T01:40:06.504Z,98779.69
2023-11-25T01:42:34.111Z,98756.31
2023-11-25T01:45:01.459Z,98750.09
2023-11-25T01:47:43.139Z,98734.88
2023-11-25T01:50:11.882Z,98727.50
2023-11-25T01:52:39.665Z,98724.53
2023-11-25T01:55:09.911Z,98727.25
2023-11-25T01:57:38.143Z,98726.84
2023-11-25T02:00:09.054Z,98721.37
2023-11-25T02:02:39.420Z,98707.13
2023-11-25T02:05:09.183Z,98709.56
2023-11-25T02:07:37.297Z,98724.78
2023-11-25T02:10:06.314Z,98728.50
2023-11-25T02:12:36.018Z,98719.22
2023-11-25T02:15:03.883Z,98712.00
2023-11-25T02:17:33.568Z,98715.25
2023-11-25T02:20:03.753Z,98725.41
2023-11-25T02:22:38.514Z,98730.84
2023-11-25T02:25:06.469Z,98734.00
2023-11-25T02:27:35.841Z,98737.34
2023-11-25T02:30:07.291Z,98749.03
2023-11-25T02:32:35.089Z,98748.44
2023-11-25T02:35:02.504Z,98753.28
2023-11-25T02:37:29.909Z,98754.94
2023-11-25T02:39:57.673Z,98753.28
2023-11-25T02:42:25.104Z,98747.38
2023-11-25T02:44:54.518Z,98745.38
2023-11-25T02:47:24.654Z,98755.16
2023-11-25T02:49:52.514Z,98748.88
2023-11-25T02:52:20.801Z,98746.62
2023-11-25T02:54:49.319Z,98755.78
2023-11-25T02:57:20.318Z,98757.34
2023-11-25T02:59:48.244Z,98760.81
2023-11-25T03:02:17.238Z,98765.28
2023-11-25T03:04:46.857Z,98763.81
2023-11-25T03:07:15.031Z,98768.63
2023-11-25T03:09:45.740Z,98775.31
2023-11-25T03:12:13.090Z,98767.38
2023-11-25T03:14:40.497Z,98770.56
2023-11-25T03:17:08.682Z,98761.16
2023-11-25T03:19:36.509Z,98757.66
2023-11-25T03:22:04.514Z,98764.59
2023-11-25T03:24:32.162Z,98766.94
2023-11-25T03:26:59.697Z,98761.28
2023-11-25T03:29:27.507Z,98758.41
2023-11-25T03:31:55.284Z,98765.13
2023-11-25T03:34:24.831Z,98759.81
2023-11-25T03:36:52.992Z,98764.63
2023-11-25T03:39:21.073Z,98760.97
2023-11-25T03:41:48.404Z,98756.84
2023-11-25T03:44:17.681Z,98764.59
2023-11-25T03:46:45.810Z,98772.06
2023-11-25T03:49:13.788Z,98764.53
2023-11-25T03:51:41.166Z,98766.91
2023-11-25T03:54:09.994Z,98759.72
2023-11-25T03:56:37.344Z,98768.91
2023-11-25T03:59:05.353Z,98776.38
2023-11-25T04:01:33.267Z,98772.09
2023-11-25T04:04:02.936Z,98771.31
2023-11-25T04:06:30.970Z,98763.38
2023-11-25T04:08:58.309Z,98761.13
2023-11-25T04:11:25.970Z,98756.75
2023-11-25T04:13:57.831Z,98755.47
2023-11-25T04:16:25.585Z,98761.22
2023-11-25T04:18:53.540Z,98764.06
2023-11-25T04:21:24.706Z,98754.12
2023-11-25T04:23:56.724Z,98762.88
2023-11-25T04:26:25.914Z,98749.31
2023-11-25T04:28:53.895Z,98755.66
2023-11-25T04:31:21.941Z,98767.25
2023-11-25T04:33:50.558Z,98774.66
2023-11-25T04:36:19.884Z,98773.59
2023-11-25T04:38:47.695Z,98774.75
2023-11-25T04:41:15.378Z,98766.81
2023-11-25T04:43:42.856Z,98775.19
2023-11-25T04:46:10.650Z,98766.72
2023-11-25T04:48:40.216Z,98765.53
2023-11-25T04:51:07.564Z,98765.16
2023-11-25T04:53:34.896Z,98770.34
2023-11-25T04:56:02.612Z,98767.91
2023-11-25T04:58:30.533Z,98759.41
2023-11-25T05:00:59.893Z,98763.12
2023-11-25T05:03:27.678Z,98765.09
2023-11-25T05:05:55.089Z,98768.94
2023-11-25T05:08:22.813Z,98772.03
2023-11-25T05:10:50.544Z,98769.53
2023-11-25T05:13:19.674Z,98769.03
2023-11-25T05:15:47.169Z,98762.22
2023-11-25T05:18:14.858Z,98770.34
2023-11-25T05:20:42.453Z,98773.03
2023-11-25T05:23:09.787Z,98770.12
2023-11-25T05:25:39.020Z,98762.62
2023-11-25T05:28:07.147Z,98764.69
2023-11-25T05:30:34.571Z,98764.28
2023-11-25T05:33:02.501Z,98763.91
2023-11-25T05:35:31.442Z,98768.53
2023-11-25T05:37:59.393Z,98764.72
2023-11-25T05:40:31.041Z,98755.19
2023-11-25T05:43:01.806Z,98769.84
2023-11-25T05:45:31.810Z,98761.22
2023-11-25T05:47:59.279Z,98769.19
2023-11-25T05:50:26.744Z,98772.81
2023-11-25T05:52:54.564Z,98764.50
2023-11-25T05:55:22.305Z,98760.72
2023-11-25T05:57:52.108Z,98769.84
2023-11-25T06:00:20.978Z,98784.44
2023-11-25T06:02:48.985Z,98790.16
2023-11-25T06:05:17.115Z,98780.41
2023-11-25T06:07:45.527Z,98792.94
2023-11-25T06:10:13.395Z,98785.72
2023-11-25T06:12:42.946Z,98800.12
2023-11-25T06:15:12.745Z,98804.81
2023-11-25T06:17:41.599Z,98807.25
2023-11-25T06:20:09.421Z,98804.06
2023-11-25T06:22:38.630Z,98800.06
2023-11-25T06:25:09.354Z,98799.94
2023-11-25T06:27:37.437Z,98802.66
2023-11-25T06:30:05.283Z,98790.31
2023-11-25T06:32:34.424Z,98800.16
2023-11-25T06:35:02.040Z,98793.12
2023-11-25T06:37:31.942Z,98795.75
2023-11-25T06:40:00.226Z,98790.13
2023-11-25T06:42:28.829Z,98791.03
2023-11-25T06:44:56.643Z,98794.63
2023-11-25T06:47:24.986Z,98798.72
2023-11-25T06:49:53.322Z,98802.31
2023-11-25T06:52:20.796Z,98811.06
2023-11-25T06:54:49.988Z,98810.50
2023-11-25T06:57:25.094Z,98823.97
2023-11-25T06:59:52.727Z,98824.91
2023-11-25T07:02:20.232Z,98822.78
2023-11-25T07:04:48.904Z,98832.12
2023-11-25T07:07:18.234Z,98836.63
2023-11-25T07:09:54.698Z,98830.84
2023-11-25T07:12:22.373Z,98835.84
2023-11-25T07:14:52.396Z,98830.94
2023-11-25T07:17:20.056Z,98839.19
2023-11-25T07:19:50.632Z,98840.38
2023-11-25T07:22:18.144Z,98831.84
2023-11-25T07:24:47.812Z,98835.72
2023-11-25T07:27:19.530Z,98835.00
2023-11-25T07:29:47.712Z,98835.53
2023-11-25T07:32:18.415Z,98831.81
2023-11-25T07:34:46.196Z,98834.87
2023-11-25T07:37:13.850Z,98831.75
2023-11-25T07:39:41.251Z,98833.81
2023-11-25T07:42:09.533Z,98837.44
2023-11-25T07:44:36.971Z,98840.84
2023-11-25T07:47:08.834Z,98841.81
2023-11-25T07:49:37.872Z,98840.22
2023-11-25T07:52:06.092Z,98847.59
2023-11-25T07:54:35.252Z,98846.00
2023-11-25T07:57:04.472Z,98847.34
2023-11-25T07:59:31.857Z,98856.81
2023-11-25T08:01:59.824Z,98861.81
2023-11-25T08:04:27.983Z,98845.00
2023-11-25T08:06:55.905Z,98856.41
2023-11-25T08:09:27.612Z,98855.59
2023-11-25T08:11:57.169Z,98849.78
2023-11-25T08:14:24.502Z,98850.25
2023-11-25T08:16:52.915Z,98846.50
2023-11-25T08:19:22.594Z,98853.59
2023-11-25T08:21:50.158Z,98844.22
2023-11-25T08:24:22.817Z,98856.91
2023-11-25T08:26:51.513Z,98859.09
2023-11-25T08:29:19.738Z,98861.31
2023-11-25T08:31:47.185Z,98865.91
2023-11-25T08:34:16.099Z,98869.09
2023-11-25T08:36:54.086Z,98864.41
2023-11-25T08:39:33.849Z,98871.59
2023-11-25T08:42:01.251Z,98871.31
2023-11-25T08:44:33.980Z,98884.50
2023-11-25T08:47:17.378Z,98885.97
2023-11-25T08:49:46.675Z,98875.84
2023-11-25T08:52:16.658Z,98884.66
2023-11-25T08:54:49.655Z,98884.91
2023-11-25T08:57:21.466Z,98881.31
2023-11-25T08:59:49.246Z,98883.31
2023-11-25T09:02:23.652Z,98873.13
2023-11-25T09:05:03.683Z,98875.25
2023-11-25T09:07:40.601Z,98875.25
2023-11-25T09:10:08.952Z,98876.72
2023-11-25T09:12:36.633Z,98871.09
2023-11-25T09:15:09.260Z,98863.56
2023-11-25T09:17:39.819Z,98869.44
2023-11-25T09:20:11.072Z,98861.84
2023-11-25T09:22:40.311Z,98867.81
2023-11-25T09:25:13.574Z,98869.88
2023-11-25T09:27:42.327Z,98873.84
2023-11-25T09:30:12.984Z,98870.97
2023-11-25T09:32:45.704Z,98862.03
2023-11-25T09:35:14.070Z,98863.78
2023-11-25T09:37:43.831Z,98867.09
2023-11-25T09:40:16.874Z,98859.47
2023-11-25T09:42:46.863Z,98868.59
2023-11-25T09:45:16.062Z,98865.53
2023-11-25T09:47:46.730Z,98849.06
2023-11-25T09:50:15.594Z,98871.88
2023-11-25T09:52:43.307Z,98875.72
2023-11-25T09:55:12.945Z,98873.22
2023-11-25T09:57:43.555Z,98861.91
2023-11-25T10:00:12.689Z,98864.13
2023-11-25T10:02:41.135Z,98866.28
2023-11-25T10:05:09.198Z,98873.84
2023-11-25T10:07:37.377Z,98863.66
2023-11-25T10:10:06.276Z,98880.78
2023-11-25T10:12:35.275Z,98882.44
2023-11-25T10:15:09.498Z,98871.56
2023-11-25T10:17:56.926Z,98873.75
2023-11-25T10:20:24.967Z,98865.34
2023-11-25T10:22:57.757Z,98869.44
2023-11-25T10:25:27.125Z,98870.91
2023-11-25T10:27:56.439Z,98874.34
2023-11-25T10:30:26.340Z,98877.28
2023-11-25T10:32:57.813Z,98880.06
2023-11-25T10:35:26.422Z,98880.44
2023-11-25T10:37:54.624Z,98874.56
2023-11-25T10:40:23.482Z,98873.53
2023-11-25T10:42:55.428Z,98871.88
2023-11-25T10:45:28.166Z,98884.19
2023-11-25T10:47:57.503Z,98885.44
2023-11-25T10:50:29.544Z,98879.41
2023-11-25T10:52:59.777Z,98879.13
2023-11-25T10:55:29.308Z,98882.84
2023-11-25T10:57:59.048Z,98878.88
2023-11-25T11:00:30.077Z,98879.13
2023-11-25T11:02:58.755Z,98880.97
2023-11-25T11:05:29.201Z,98875.88
2023-11-25T11:07:59.030Z,98886.28
2023-11-25T11:10:28.406Z,98882.97
2023-11-25T11:13:01.276Z,98874.50
2023-11-25T11:15:29.199Z,98879.56
2023-11-25T11:18:08.313Z,98886.78
2023-11-25T11:20:39.676Z,98883.78
2023-11-25T11:23:07.902Z,98874.19
2023-11-25T11:25:37.096Z,98877.16
2023-11-25T11:28:08.179Z,98874.53
2023-11-25T11:30:42.433Z,98862.06
2023-11-25T11:33:10.596Z,98868.09
2023-11-25T11:35:39.944Z,98862.53
2023-11-25T11:38:37.261Z,98861.56
2023-11-25T11:41:11.979Z,98868.94
2023-11-25T11:43:39.839Z,98858.75
2023-11-25T11:46:08.086Z,98853.53
2023-11-25T11:48:35.923Z,98857.09
2023-11-25T11:51:05.347Z,98852.03
2023-11-25T11:53:43.543Z,98855.09
2023-11-25T11:56:18.646Z,98852.47
2023-11-25T11:59:05.578Z,98856.94
2023-11-25T12:01:33.972Z,98847.34
2023-11-25T12:04:02.213Z,98850.59
2023-11-25T12:06:30.812Z,98849.09
2023-11-25T12:09:06.462Z,98844.09
2023-11-25T12:11:41.220Z,98842.50
2023-11-25T12:14:12.417Z,98828.16
2023-11-25T12:16:40.606Z,98840.91
2023-11-25T12:19:07.955Z,98854.53
2023-11-25T12:21:37.610Z,98849.44
2023-11-25T12:24:06.141Z,98843.81
2023-11-25T12:26:33.839Z,98837.69
2023-11-25T12:29:01.873Z,98849.31
2023-11-25T12:31:29.619Z,98853.81
2023-11-25T12:34:01.516Z,98847.31
2023-11-25T12:36:28.856Z,98842.19
2023-11-25T12:39:02.087Z,98857.44
2023-11-25T12:41:33.831Z,98847.75
2023-11-25T12:44:07.065Z,98866.31
2023-11-25T12:46:35.280Z,98867.31
2023-11-25T12:49:22.822Z,98845.97
2023-11-25T12:51:53.951Z,98851.94
2023-11-25T12:54:21.867Z,98862.47
2023-11-25T12:56:53.567Z,98863.81
2023-11-25T12:59:25.041Z,98868.28
2023-11-25T13:01:53.390Z,98869.69
2023-11-25T13:04:21.424Z,98888.44
2023-11-25T13:06:49.807Z,98879.06
2023-11-25T13:09:23.085Z,98885.22
2023-11-25T13:12:01.119Z,98907.84
2023-11-25T13:14:31.093Z,98880.66
2023-11-25T13:16:58.550Z,98900.44
2023-11-25T13:19:33.333Z,98900.78
2023-11-25T13:22:02.098Z,98886.13
2023-11-25T13:24:29.438Z,98898.13
2023-11-25T13:26:59.706Z,98902.44
2023-11-25T13:29:27.373Z,98899.88
2023-11-25T13:31:55.314Z,98907.72
2023-11-25T13:34:22.654Z,98910.91
2023-11-25T13:36:51.785Z,98909.47
2023-11-25T13:39:24.716Z,98904.56
2023-11-25T13:41:52.480Z,98939.69
2023-11-25T13:44:20.320Z,98918.09
2023-11-25T13:46:49.754Z,98922.00
2023-11-25T13:49:17.889Z,98920.91
2023-11-25T13:51:45.207Z,98928.03
2023-11-25T13:54:15.988Z,98931.78
2023-11-25T13:56:43.729Z,98935.13
2023-11-25T13:59:11.047Z,98947.47
2023-11-25T14:01:39.747Z,98953.81
2023-11-25T14:04:08.680Z,98950.09
2023-11-25T14:06:36.113Z,98953.25
2023-11-25T14:09:04.733Z,98958.44
2023-11-25T14:11:32.753Z,98968.62
2023-11-25T14:14:01.661Z,98961.88
2023-11-25T14:16:29.679Z,98964.63
2023-11-25T14:18:57.486Z,98974.81
2023-11-25T14:21:27.354Z,98960.41
2023-11-25T14:23:55.676Z,98962.66
2023-11-25T14:26:27.081Z,98967.72
2023-11-25T14:28:54.778Z,98966.75
2023-11-25T14:31:23.249Z,98965.63
2023-11-25T14:33:50.908Z,98971.09
2023-11-25T14:36:18.529Z,98978.81
2023-11-25T14:38:47.589Z,98967.66
2023-11-25T14:41:20.867Z,98959.78
2023-11-25T14:43:48.804Z,98988.19
2023-11-25T14:46:18.016Z,98975.19
2023-11-25T14:48:47.839Z,98984.09
2023-11-25T14:51:16.046Z,98992.25
2023-11-25T14:53:44.419Z,98999.34
2023-11-25T14:56:14.315Z,98995.34
2023-11-25T14:58:43.859Z,98998.72
2023-11-25T15:01:12.269Z,99009.22
2023-11-25T15:03:40.875Z,98995.00
2023-11-25T15:06:08.420Z,99006.06
2023-11-25T15:08:39.103Z,99007.28
2023-11-25T15:11:06.785Z,99008.41
2023-11-25T15:13:35.109Z,99019.66
2023-11-25T15:16:03.114Z,99014.75
2023-11-25T15:18:33.011Z,99015.56
2023-11-25T15:21:03.374Z,99013.16
2023-11-25T15:23:31.123Z,99024.16
2023-11-25T15:25:58.785Z,99019.94
2023-11-25T15:28:26.300Z,99039.16
2023-11-25T15:30:53.938Z,99033.31
2023-11-25T15:33:21.306Z,99026.69
2023-11-25T15:35:49.053Z,99024.34
2023-11-25T15:38:17.248Z,99037.22
2023-11-25T15:40:46.101Z,99041.37
2023-11-25T15:43:15.666Z,99038.97
2023-11-25T15:45:44.665Z,99049.25
2023-11-25T15:48:12.721Z,99044.44
2023-11-25T15:50:42.221Z,99053.78
2023-11-25T15:53:13.755Z,99043.38
2023-11-25T15:55:41.272Z,99042.44
2023-11-25T15:58:13.322Z,99052.81
2023-11-25T16:00:41.717Z,99064.44
2023-11-25T16:03:11.464Z,99063.59
2023-11-25T16:05:40.224Z,99059.56
2023-11-25T16:08:08.611Z,99066.91
2023-11-25T16:10:36.636Z,99067.47
2023-11-25T16:13:07.766Z,99072.22
2023-11-25T16:15:35.647Z,99085.50
2023-11-25T16:18:07.232Z,99085.44
2023-11-25T16:20:36.155Z,99073.09
2023-11-25T16:23:12.952Z,99087.63
2023-11-25T16:25:40.491Z,99086.53
2023-11-25T16:28:08.232Z,99098.84
2023-11-25T16:30:36.034Z,99100.03
2023-11-25T16:33:09.690Z,99104.09
2023-11-25T16:35:38.141Z,99112.16
2023-11-25T16:38:06.684Z,99106.38
2023-11-25T16:40:34.091Z,99106.25
2023-11-25T16:43:04.485Z,99120.41
2023-11-25T16:45:33.541Z,99119.84
2023-11-25T16:48:02.736Z,99129.94
2023-11-25T16:50:30.506Z,99138.34
2023-11-25T16:52:58.270Z,99142.75
2023-11-25T16:55:27.114Z,99141.34
2023-11-25T16:57:54.859Z,99141.00
2023-11-25T17:00:25.201Z,99147.97
2023-11-25T17:02:52.690Z,99151.38
2023-11-25T17:05:21.483Z,99151.53
2023-11-25T17:07:49.428Z,99153.97
2023-11-25T17:10:17.568Z,99157.31
2023-11-25T17:12:55.934Z,99167.34
2023-11-25T17:15:23.801Z,99175.59
2023-11-25T17:17:52.311Z,99167.19
2023-11-25T17:20:19.941Z,99175.72
2023-11-25T17:22:50.130Z,99168.03
2023-11-25T17:25:19.975Z,99168.72
2023-11-25T17:27:48.409Z,99167.88
2023-11-25T17:30:15.834Z,99166.41
2023-11-25T17:32:43.522Z,99171.53
2023-11-25T17:35:10.944Z,99172.91
2023-11-25T17:37:39.665Z,99171.78
2023-11-25T17:40:10.346Z,99170.34
2023-11-25T17:42:37.695Z,99179.03
2023-11-25T17:45:14.015Z,99178.94
2023-11-25T17:47:42.942Z,99183.84
2023-11-25T17:50:11.174Z,99190.75
2023-11-25T17:52:38.605Z,99188.75
2023-11-25T17:55:11.488Z,99191.38
2023-11-25T17:57:38.867Z,99186.06
2023-11-25T18:00:11.890Z,99181.66
2023-11-25T18:02:40.771Z,99184.28
2023-11-25T18:05:11.160Z,99187.78
2023-11-25T18:07:42.743Z,99180.09
2023-11-25T18:10:12.186Z,99182.50
2023-11-25T18:12:39.585Z,99185.13
2023-11-25T18:15:08.672Z,99183.25
2023-11-25T18:17:36.730Z,99187.75
2023-11-25T18:20:06.916Z,99187.75
2023-11-25T18:22:36.705Z,99185.19
2023-11-25T18:25:06.711Z,99190.34
2023-11-25T18:27:35.232Z,99200.81
2023-11-25T18:30:02.592Z,99189.56
2023-11-25T18:32:30.252Z,99186.63
2023-11-25T18:35:01.680Z,99186.63
2023-11-25T18:37:36.367Z,99181.53
2023-11-25T18:40:05.739Z,99181.75
2023-11-25T18:42:34.625Z,99186.06
2023-11-25T18:45:08.201Z,99190.47
2023-11-25T18:47:37.904Z,99187.19
2023-11-25T18:50:07.712Z,99186.59
2023-11-25T18:52:37.172Z,99194.94
2023-11-25T18:55:06.907Z,99195.81
2023-11-25T18:57:34.317Z,99207.84
2023-11-25T19:00:03.825Z,99211.09
2023-11-25T19:02:33.184Z,99214.44
2023-11-25T19:05:03.612Z,99201.78
2023-11-25T19:07:34.991Z,99206.16
2023-11-25T19:10:03.527Z,99207.94
2023-11-25T19:12:32.682Z,99202.00
2023-11-25T19:15:02.423Z,99200.22
2023-11-25T19:17:31.892Z,99201.94
2023-11-25T19:19:59.631Z,99208.78
2023-11-25T19:22:26.978Z,99212.22
2023-11-25T19:24:54.337Z,99215.56
2023-11-25T19:27:24.197Z,99219.84
2023-11-25T19:29:52.288Z,99218.41
2023-11-25T19:32:19.638Z,99219.22
2023-11-25T19:34:47.925Z,99224.97
2023-11-25T19:37:15.368Z,99233.53
2023-11-25T19:39:43.837Z,99242.59
2023-11-25T19:42:11.513Z,99244.16
2023-11-25T19:44:45.271Z,99249.81
2023-11-25T19:47:13.136Z,99250.12
2023-11-25T19:49:42.671Z,99261.91
2023-11-25T19:52:13.136Z,99265.31
2023-11-25T19:54:43.422Z,99263.63
2023-11-25T19:57:15.446Z,99270.50
2023-11-25T19:59:43.159Z,99279.41
2023-11-25T20:02:11.675Z,99281.22
2023-11-25T20:04:40.932Z,99276.16
2023-11-25T20:07:09.541Z,99279.88
2023-11-25T20:09:38.043Z,99279.00
2023-11-25T20:12:07.042Z,99279.47
2023-11-25T20:14:34.360Z,99273.94
2023-11-25T20:17:03.800Z,99277.91
2023-11-25T20:19:34.831Z,99274.03
2023-11-25T20:22:02.587Z,99284.81
2023-11-25T20:24:29.981Z,99284.59
2023-11-25T20:27:02.049Z,99280.25
2023-11-25T20:29:29.438Z,99275.09
2023-11-25T20:31:56.832Z,99277.81
2023-11-25T20:34:28.401Z,99269.63
2023-11-25T20:36:59.187Z,99256.50
2023-11-25T20:39:27.560Z,99258.50
2023-11-25T20:41:58.361Z,99256.81
2023-11-25T20:44:26.020Z,99246.59
2023-11-25T20:46:54.588Z,99238.87
2023-11-25T20:49:21.956Z,99249.22
2023-11-25T20:51:49.317Z,99243.97
2023-11-25T20:54:19.529Z,99250.72
2023-11-25T20:56:46.945Z,99241.56
2023-11-25T20:59:15.147Z,99251.16
2023-11-25T21:01:44.105Z,99243.06
2023-11-25T21:04:12.718Z,99250.81
2023-11-25T21:06:43.047Z,99245.75
2023-11-25T21:09:15.424Z,99255.16
2023-11-25T21:11:43.635Z,99250.88
2023-11-25T21:14:13.632Z,99249.94
2023-11-25T21:16:43.112Z,99242.31
2023-11-25T21:19:13.861Z,99256.94
2023-11-25T21:21:41.282Z,99254.47
2023-11-25T21:24:08.633Z,99252.44
2023-11-25T21:26:36.318Z,99249.00
2023-11-25T21:29:03.876Z,99236.91
2023-11-25T21:31:31.255Z,99250.41
2023-11-25T21:33:58.883Z,99245.22
2023-11-25T21:36:26.330Z,99244.25
2023-11-25T21:38:53.670Z,99251.09
2023-11-25T21:41:22.786Z,99245.91
2023-11-25T21:43:50.127Z,99248.41
2023-11-25T21:46:17.647Z,99250.75
2023-11-25T21:48:45.279Z,99248.66
2023-11-25T21:51:13.010Z,99234.16
2023-11-25T21:53:40.684Z,99244.66
2023-11-25T21:56:08.505Z,99244.72
2023-11-25T21:58:39.951Z,99248.13
2023-11-25T22:01:09.123Z,99245.44
2023-11-25T22:03:40.361Z,99249.09
2023-11-25T22:06:08.009Z,99252.41
2023-11-25T22:08:36.334Z,99252.94
2023-11-25T22:11:04.919Z,99260.47
2023-11-25T22:13:35.099Z,99245.53
2023-11-25T22:16:03.173Z,99238.63
2023-11-25T22:18:36.538Z,99247.81
2023-11-25T22:21:03.952Z,99261.53
2023-11-25T22:23:32.804Z,99256.38
2023-11-25T22:26:16.968Z,99258.34
2023-11-25T22:28:44.729Z,99249.41
2023-11-25T22:31:17.097Z,99253.22
2023-11-25T22:33:45.066Z,99251.91
2023-11-25T22:36:21.717Z,99239.06
2023-11-25T22:38:50.053Z,99244.09
2023-11-25T22:41:17.994Z,99247.00
2023-11-25T22:43:48.018Z,99251.81
2023-11-25T22:46:21.424Z,99255.84
2023-11-25T22:48:49.823Z,99259.88
2023-11-25T22:51:18.207Z,99252.88
2023-11-25T22:53:47.208Z,99257.78
2023-11-25T22:56:15.643Z,99262.84
2023-11-25T22:58:45.882Z,99260.34
2023-11-25T23:01:14.257Z,99261.31
2023-11-25T23:03:42.304Z,99264.06
2023-11-25T23:06:11.714Z,99256.41
2023-11-25T23:08:45.660Z,99260.16
2023-11-25T23:11:13.398Z,99267.63
2023-11-25T23:13:42.271Z,99256.41
2023-11-25T23:16:11.552Z,99251.38
2023-11-25T23:18:40.882Z,99244.72
2023-11-25T23:21:09.086Z,99239.75
2023-11-25T23:23:43.479Z,99246.25
2023-11-25T23:26:16.208Z,99245.50
2023-11-25T23:28:44.444Z,99244.81
2023-11-25T23:31:13.098Z,99246.66
2023-11-25T23:33:40.956Z,99250.03
2023-11-25T23:36:09.075Z,99251.72
2023-11-25T23:38:37.154Z,99260.06
2023-11-25T23:41:05.462Z,99255.84
2023-11-25T23:43:33.784Z,99257.72
2023-11-25T23:46:01.256Z,99250.34
2023-11-25T23:48:29.941Z,99252.66
2023-11-25T23:50:57.799Z,99247.44
2023-11-25T23:53:25.224Z,99238.16
2023-11-25T23:55:52.933Z,99236.63
2023-11-25T23:58:21.148Z,99232.22
